Time;durP1;ratioP1;P1;durP2;ratioP2;P2;SDS_P1;SDS_P2;PMS_P1;PMS_P2;Temp;Humidity;BMP_temperature;BMP_pressure;BME280_temperature;BME280_humidity;BME280_pressure;Samples;Min_cycle;Max_cycle;Signal;HPM_P1;HPM_P2
2021/04/13 00:01:17;;;;;;;13.48;5.70;;;23.70;52.50;;;;;;5095606;28;20050;-53
2021/04/13 00:03:56;;;;;;;19.00;4.88;;;23.70;52.60;;;;;;5095488;28;20028;-53
2021/04/13 00:06:29;;;;;;;16.98;5.30;;;23.60;52.70;;;;;;5077376;28;20462;-53
2021/04/13 00:09:00;;;;;;;16.70;4.55;;;23.60;52.70;;;;;;5077353;28;20028;-53
2021/04/13 00:11:27;;;;;;;19.92;4.97;;;23.60;52.80;;;;;;5095494;28;20024;-53
2021/04/13 00:14:00;;;;;;;14.43;4.18;;;23.60;52.80;;;;;;5095233;28;20434;-53
2021/04/13 00:16:29;;;;;;;12.15;4.40;;;23.50;52.80;;;;;;5095430;28;20389;-54
2021/04/13 00:18:56;;;;;;;15.95;4.65;;;23.50;52.90;;;;;;5095414;28;20032;-54
2021/04/13 00:21:38;;;;;;;14.55;4.55;;;23.50;52.90;;;;;;5095018;28;20042;-54
2021/04/13 00:24:13;;;;;;;18.17;4.63;;;23.50;52.90;;;;;;5077114;28;20790;-54
2021/04/13 00:26:45;;;;;;;13.90;4.43;;;23.50;52.90;;;;;;5095502;28;20034;-53
2021/04/13 00:29:14;;;;;;;14.50;3.85;;;23.50;52.80;;;;;;5076891;28;20131;-54
2021/04/13 00:31:45;;;;;;;13.90;4.60;;;23.50;52.90;;;;;;5094722;28;20350;-53
2021/04/13 00:34:24;;;;;;;17.23;4.38;;;23.40;53.00;;;;;;5094963;28;20475;-53
2021/04/13 00:37:08;;;;;;;17.45;4.22;;;23.40;53.10;;;;;;5076634;28;20359;-53
2021/04/13 00:58:54;;;;;;;13.07;4.05;;;23.30;53.20;;;;;;5088690;28;20080;-53
2021/04/13 01:01:28;;;;;;;17.23;4.18;;;23.30;53.40;;;;;;5088830;28;20397;-53
2021/04/13 01:04:02;;;;;;;15.13;4.20;;;23.20;53.50;;;;;;5094445;28;20119;-54
2021/04/13 01:06:33;;;;;;;16.67;4.70;;;23.20;53.50;;;;;;5094080;28;20040;-54
2021/04/13 01:09:09;;;;;;;14.77;3.15;;;23.20;53.70;;;;;;5094532;28;20052;-53
2021/04/13 01:11:45;;;;;;;16.20;4.25;;;23.20;53.70;;;;;;5094126;28;20035;-53
2021/04/13 01:14:12;;;;;;;18.60;4.10;;;23.20;53.70;;;;;;5094112;28;20055;-54
2021/04/13 01:16:46;;;;;;;11.00;3.30;;;23.20;53.70;;;;;;5094323;28;20039;-54
2021/04/13 01:19:29;;;;;;;12.70;4.72;;;23.20;53.80;;;;;;5076234;28;20035;-53
2021/04/13 01:22:20;;;;;;;15.80;3.85;;;23.20;53.80;;;;;;5094241;28;20028;-53
2021/04/13 01:24:52;;;;;;;15.50;3.75;;;23.20;53.80;;;;;;5094309;28;20036;-54
2021/04/13 01:27:22;;;;;;;13.20;3.55;;;23.20;53.70;;;;;;5094019;28;20539;-54
2021/04/13 01:29:51;;;;;;;17.80;4.25;;;23.20;53.90;;;;;;5093911;28;20040;-54
2021/04/13 01:32:18;;;;;;;13.82;3.70;;;23.20;54.00;;;;;;5075444;28;20048;-53
2021/04/13 01:34:53;;;;;;;14.80;4.07;;;23.20;54.00;;;;;;5093755;28;20032;-54
2021/04/13 01:37:45;;;;;;;14.43;4.78;;;23.10;54.00;;;;;;5073850;28;20021;-53
2021/04/13 01:40:21;;;;;;;14.82;3.65;;;23.10;54.00;;;;;;5072441;28;20040;-54
2021/04/13 01:42:49;;;;;;;15.68;4.18;;;23.10;54.10;;;;;;5072270;28;20028;-54
2021/04/13 01:45:26;;;;;;;11.77;4.28;;;23.10;54.10;;;;;;5072742;28;20779;-53
2021/04/13 01:47:54;;;;;;;12.55;3.88;;;23.10;54.20;;;;;;5073440;28;20037;-53
2021/04/13 01:50:35;;;;;;;12.77;3.90;;;23.10;54.10;;;;;;5073606;28;20417;-53
2021/04/13 01:53:13;;;;;;;12.05;4.00;;;23.20;54.20;;;;;;5073344;28;20036;-53
2021/04/13 01:55:58;;;;;;;22.40;5.28;;;23.10;54.20;;;;;;5073251;28;20074;-54
2021/04/13 01:58:30;;;;;;;13.68;3.45;;;23.20;54.20;;;;;;5073024;28;20028;-54
2021/04/13 02:01:09;;;;;;;13.80;3.50;;;23.20;54.20;;;;;;5073390;28;20111;-54
2021/04/13 02:03:42;;;;;;;12.90;3.65;;;23.10;54.20;;;;;;5072967;28;20036;-54
2021/04/13 02:06:22;;;;;;;15.00;4.07;;;23.20;54.20;;;;;;5073097;28;20028;-54
2021/04/13 02:08:53;;;;;;;10.75;3.08;;;23.10;54.20;;;;;;5073343;28;20028;-54
2021/04/13 02:11:26;;;;;;;;;;;23.10;54.20;;;;;;5073910;28;20040;-54
2021/04/13 02:13:58;;;;;;;10.65;4.07;;;23.10;54.10;;;;;;5055130;28;19908;-54
2021/04/13 02:16:30;;;;;;;16.25;4.40;;;23.20;54.00;;;;;;5073388;28;20028;-54
2021/04/13 02:18:57;;;;;;;10.85;4.07;;;23.20;54.10;;;;;;5073131;28;20036;-54
2021/04/13 02:21:29;;;;;;;12.35;4.50;;;23.20;54.10;;;;;;5073128;28;20028;-54
2021/04/13 02:24:00;;;;;;;16.15;3.88;;;23.10;54.10;;;;;;5072916;28;20119;-54
2021/04/13 02:26:26;;;;;;;;;;;23.10;54.10;;;;;;5073659;28;20037;-54
2021/04/13 02:28:55;;;;;;;11.20;3.53;;;23.10;54.00;;;;;;5073083;28;19908;-54
2021/04/13 02:31:36;;;;;;;14.65;3.28;;;23.10;53.80;;;;;;5048578;28;20120;-54
2021/04/13 02:34:24;;;;;;;17.10;3.63;;;23.10;53.80;;;;;;5062173;28;20025;-54
2021/04/13 02:37:28;;;;;;;7.20;2.83;;;23.10;53.80;;;;;;5072491;28;20032;-54
2021/04/13 02:39:56;;;;;;;8.60;3.10;;;23.10;53.80;;;;;;5058444;28;20032;-54
2021/04/13 02:42:25;;;;;;;13.73;3.33;;;23.10;53.80;;;;;;5076820;28;20055;-54
2021/04/13 02:45:01;;;;;;;12.68;3.95;;;23.00;53.80;;;;;;5076987;28;20553;-54
2021/04/13 02:47:30;;;;;;;10.93;3.08;;;23.00;53.90;;;;;;5076862;28;20086;-54
2021/04/13 02:50:01;;;;;;;12.25;3.40;;;23.00;53.90;;;;;;5077135;28;20504;-54
2021/04/13 02:52:35;;;;;;;10.85;3.13;;;23.00;53.90;;;;;;5076769;28;20040;-55
2021/04/13 02:55:06;;;;;;;13.63;4.60;;;23.00;53.90;;;;;;5076845;28;20020;-54
2021/04/13 02:57:39;;;;;;;10.65;3.25;;;22.90;53.80;;;;;;5058624;28;20024;-55
2021/04/13 03:00:26;;;;;;;12.65;3.15;;;22.90;53.90;;;;;;5076528;28;20031;-54
2021/04/13 03:03:02;;;;;;;12.68;3.58;;;23.00;53.90;;;;;;5076655;28;20471;-54
2021/04/13 03:05:30;;;;;;;10.63;3.88;;;22.90;53.80;;;;;;5076906;28;20127;-55
2021/04/13 03:07:58;;;;;;;9.82;3.65;;;22.90;53.80;;;;;;5076474;28;20032;-54
2021/04/13 03:10:34;;;;;;;9.73;3.08;;;23.00;53.90;;;;;;5076457;28;20028;-54
2021/04/13 03:13:06;;;;;;;9.57;2.92;;;22.90;53.80;;;;;;5076521;28;20033;-54
2021/04/13 03:15:34;;;;;;;9.27;2.97;;;22.90;53.80;;;;;;5076217;28;20031;-54
2021/04/13 03:18:06;;;;;;;12.50;3.97;;;22.90;53.90;;;;;;5058402;28;20489;-55
2021/04/13 03:20:42;;;;;;;7.70;2.85;;;22.90;53.90;;;;;;5076108;28;20098;-54
2021/04/13 03:23:11;;;;;;;11.82;3.05;;;22.90;54.00;;;;;;5074059;28;20052;-54
2021/04/13 03:25:43;;;;;;;14.10;3.67;;;22.90;54.00;;;;;;5076103;28;20435;-54
2021/04/13 03:28:12;;;;;;;12.25;3.25;;;22.90;54.00;;;;;;5076044;28;20028;-54
2021/04/13 03:30:41;;;;;;;10.50;3.53;;;22.90;54.00;;;;;;5076090;28;20020;-54
2021/04/13 03:33:21;;;;;;;12.55;3.97;;;22.90;54.10;;;;;;5096064;28;20055;-54
2021/04/13 03:35:47;;;;;;;11.52;3.72;;;22.90;54.20;;;;;;5096456;28;20446;-54
2021/04/13 03:38:19;;;;;;;15.23;3.70;;;22.90;54.10;;;;;;5096672;28;20027;-54
2021/04/13 03:40:49;;;;;;;14.13;4.05;;;22.90;54.20;;;;;;5095730;28;20474;-54
2021/04/13 03:43:20;;;;;;;12.50;3.58;;;22.90;54.20;;;;;;5095889;28;20034;-54
2021/04/13 03:45:54;;;;;;;11.95;4.00;;;22.90;54.20;;;;;;5095873;28;20092;-54
2021/04/13 03:48:28;;;;;;;13.20;3.40;;;22.90;54.20;;;;;;5095997;28;20060;-54
2021/04/13 03:50:58;;;;;;;16.23;3.78;;;22.90;54.30;;;;;;5095398;28;20055;-54
2021/04/13 03:53:35;;;;;;;;;;;22.90;54.20;;;;;;5096146;28;20023;-54
2021/04/13 03:56:01;;;;;;;16.67;3.90;;;22.90;54.30;;;;;;5077592;28;20320;-54
2021/04/13 03:58:33;;;;;;;11.13;3.67;;;23.00;54.00;;;;;;5095566;28;20099;-54
2021/04/13 04:00:59;;;;;;;14.07;3.53;;;22.90;54.10;;;;;;5095695;28;20041;-54
2021/04/13 04:03:26;;;;;;;10.82;3.55;;;22.90;54.10;;;;;;5077685;28;20111;-54
2021/04/13 04:05:58;;;;;;;9.32;3.10;;;22.90;54.20;;;;;;5095490;28;20130;-54
2021/04/13 04:08:44;;;;;;;9.68;3.58;;;22.90;54.20;;;;;;5095529;28;20085;-54
2021/04/13 04:11:10;;;;;;;16.17;3.65;;;22.90;54.30;;;;;;5095470;28;20111;-54
2021/04/13 04:13:45;;;;;;;15.93;3.83;;;22.90;54.20;;;;;;5095321;28;20359;-54
2021/04/13 04:16:32;;;;;;;12.50;3.28;;;22.90;54.30;;;;;;5095109;28;20036;-54
2021/04/13 04:19:12;;;;;;;11.82;3.13;;;22.80;54.30;;;;;;5095323;28;20469;-54
2021/04/13 04:21:40;;;;;;;12.23;3.95;;;22.80;54.20;;;;;;5095287;28;20028;-54
2021/04/13 04:24:22;;;;;;;11.70;3.55;;;22.90;54.30;;;;;;5095203;28;20028;-54
2021/04/13 04:27:05;;;;;;;11.60;3.53;;;22.80;54.30;;;;;;5095618;28;20115;-54
2021/04/13 04:29:39;;;;;;;18.52;4.50;;;22.90;54.30;;;;;;5095149;28;20097;-54
2021/04/13 04:32:29;;;;;;;8.40;3.08;;;22.90;54.40;;;;;;5095082;28;20090;-54
2021/04/13 04:34:56;;;;;;;;;;;22.80;54.30;;;;;;5076915;28;20386;-54
2021/04/13 04:37:28;;;;;;;16.13;3.45;;;22.90;54.40;;;;;;5094612;28;19939;-54
2021/04/13 04:40:11;;;;;;;10.00;3.35;;;22.90;54.20;;;;;;5094879;28;20035;-54
2021/04/13 04:42:45;;;;;;;10.07;4.13;;;22.90;54.30;;;;;;5094700;28;20039;-54
2021/04/13 04:45:12;;;;;;;12.38;3.83;;;22.90;54.30;;;;;;5094822;28;20028;-54
2021/04/13 04:47:39;;;;;;;11.77;4.22;;;22.90;54.40;;;;;;5094808;28;20107;-53
2021/04/13 04:50:09;;;;;;;10.90;3.92;;;22.90;54.40;;;;;;5094789;28;20020;-53
2021/04/13 04:52:35;;;;;;;10.60;4.00;;;22.80;54.40;;;;;;5094248;28;20066;-53
2021/04/13 04:55:02;;;;;;;11.48;3.72;;;22.80;54.40;;;;;;5094813;28;20091;-53
2021/04/13 04:57:28;;;;;;;11.25;3.58;;;22.80;54.40;;;;;;5094308;28;20081;-52
2021/04/13 04:59:54;;;;;;;14.85;3.67;;;22.80;54.40;;;;;;5094441;28;20035;-53
2021/04/13 05:02:20;;;;;;;13.50;4.30;;;22.90;55.10;;;;;;5093445;28;20039;-53
2021/04/13 05:04:47;;;;;;;11.27;3.75;;;22.80;54.50;;;;;;5094976;28;20032;-53
2021/04/13 05:07:13;;;;;;;16.27;3.97;;;22.80;54.50;;;;;;5094113;28;20024;-53
2021/04/13 05:09:39;;;;;;;12.55;4.05;;;22.80;54.40;;;;;;5094153;28;20104;-53
2021/04/13 05:12:06;;;;;;;15.52;4.25;;;22.80;54.40;;;;;;5091485;28;20056;-53
2021/04/13 05:14:33;;;;;;;16.90;4.43;;;22.80;54.50;;;;;;5094140;28;20373;-53
2021/04/13 05:16:59;;;;;;;12.38;4.00;;;22.80;54.50;;;;;;5094466;28;20031;-53
2021/04/13 05:19:26;;;;;;;10.57;3.70;;;22.80;54.50;;;;;;5094594;28;20023;-53
2021/04/13 05:21:52;;;;;;;15.18;4.20;;;22.80;54.50;;;;;;5075905;28;20063;-53
2021/04/13 05:24:18;;;;;;;13.80;3.75;;;22.80;54.50;;;;;;5093903;28;20056;-53
2021/04/13 05:26:44;;;;;;;10.95;4.45;;;22.80;54.40;;;;;;5094264;28;20450;-53
2021/04/13 05:29:10;;;;;;;15.35;4.30;;;22.80;54.40;;;;;;5093971;28;20028;-53
2021/04/13 05:31:40;;;;;;;13.70;4.40;;;22.80;54.50;;;;;;5093656;28;20127;-53
2021/04/13 05:34:07;;;;;;;9.75;3.65;;;22.80;54.40;;;;;;5093701;28;20025;-53
2021/04/13 05:36:35;;;;;;;13.13;4.03;;;22.70;54.40;;;;;;5093653;28;20103;-53
2021/04/13 05:39:01;;;;;;;10.75;3.95;;;22.70;54.50;;;;;;5093885;28;20031;-53
2021/04/13 05:41:27;;;;;;;17.15;4.20;;;22.70;54.40;;;;;;5093694;28;20501;-55
2021/04/13 05:43:53;;;;;;;9.15;3.70;;;22.70;54.50;;;;;;5093571;28;20063;-55
2021/04/13 05:46:25;;;;;;;8.82;3.85;;;22.70;54.50;;;;;;5093643;28;20134;-53
2021/04/13 05:48:52;;;;;;;6.15;2.95;;;22.70;54.50;;;;;;5093632;28;20051;-53
2021/04/13 05:51:19;;;;;;;12.52;3.70;;;22.70;54.50;;;;;;5093120;28;20157;-53
2021/04/13 05:53:45;;;;;;;11.52;4.00;;;22.70;54.60;;;;;;5093304;28;20031;-53
2021/04/13 05:56:22;;;;;;;19.25;5.13;;;22.70;54.60;;;;;;5093707;28;20093;-54
2021/04/13 05:58:49;;;;;;;11.77;3.72;;;22.70;54.70;;;;;;5093514;28;20028;-53
2021/04/13 06:01:19;;;;;;;14.88;4.55;;;22.70;54.70;;;;;;5093513;28;20030;-53
2021/04/13 06:03:46;;;;;;;17.23;4.75;;;22.70;54.70;;;;;;5094652;28;20428;-53
2021/04/13 06:06:14;;;;;;;10.18;4.00;;;22.70;54.60;;;;;;5087909;28;20032;-53
2021/04/13 06:08:40;;;;;;;10.90;3.78;;;22.70;54.60;;;;;;5092924;28;20474;-53
2021/04/13 06:11:07;;;;;;;14.90;4.70;;;22.70;54.60;;;;;;5093223;28;20062;-53
2021/04/13 06:13:33;;;;;;;10.75;4.10;;;22.70;54.60;;;;;;5092931;28;20073;-53
2021/04/13 06:15:59;;;;;;;18.10;4.55;;;22.70;54.50;;;;;;5093093;28;20016;-53
2021/04/13 06:18:25;;;;;;;17.20;4.95;;;22.70;54.50;;;;;;5093066;28;20028;-54
2021/04/13 06:20:52;;;;;;;13.25;4.50;;;22.70;55.10;;;;;;5078164;28;20489;-54
2021/04/13 06:23:19;;;;;;;12.95;6.13;;;22.70;54.60;;;;;;5113640;28;20016;-54
2021/04/13 06:25:45;;;;;;;19.23;6.53;;;22.70;54.60;;;;;;5113321;28;20131;-54
2021/04/13 06:28:12;;;;;;;14.45;5.78;;;22.70;54.60;;;;;;5113469;28;20373;-54
2021/04/13 06:30:41;;;;;;;12.38;5.45;;;22.70;54.60;;;;;;5113553;28;20052;-58
2021/04/13 06:33:07;;;;;;;16.70;5.78;;;22.70;54.60;;;;;;5079807;28;20057;-58
2021/04/13 06:35:34;;;;;;;11.73;5.70;;;22.70;54.70;;;;;;5094186;28;20724;-57
2021/04/13 06:38:05;;;;;;;10.13;5.03;;;22.70;54.80;;;;;;5073871;28;20473;-57
2021/04/13 06:40:56;;;;;;;16.73;6.00;;;22.80;54.90;;;;;;5091760;28;20038;-57
2021/04/13 06:44:05;;;;;;;10.63;5.20;;;22.80;54.90;;;;;;5092001;28;20024;-57
2021/04/13 06:46:41;;;;;;;11.05;5.50;;;22.80;54.70;;;;;;5080194;28;20047;-57
2021/04/13 06:49:32;;;;;;;12.45;5.90;;;22.80;54.60;;;;;;5073406;28;20527;-57
2021/04/13 06:51:58;;;;;;;10.65;5.30;;;22.90;54.60;;;;;;5091493;28;20119;-56
2021/04/13 06:54:40;;;;;;;10.07;5.47;;;22.90;54.50;;;;;;5092020;28;20099;-56
2021/04/13 06:57:32;;;;;;;17.63;6.13;;;22.90;54.50;;;;;;5074115;28;20077;-57
2021/04/13 07:00:32;;;;;;;10.63;4.90;;;22.90;54.40;;;;;;5080662;28;20082;-56
2021/04/13 07:02:58;;;;;;;10.38;5.20;;;22.90;54.40;;;;;;5092217;28;20032;-56
2021/04/13 07:05:33;;;;;;;11.50;5.30;;;22.90;54.30;;;;;;5091899;28;20520;-56
2021/04/13 07:08:30;;;;;;;13.63;5.72;;;22.90;54.30;;;;;;5091389;28;20482;-56
2021/04/13 07:11:03;;;;;;;9.45;4.90;;;22.90;54.30;;;;;;5041877;28;20052;-54
2021/04/13 07:14:08;;;;;;;10.63;5.30;;;23.00;54.20;;;;;;5082829;28;20064;-54
2021/04/13 07:16:42;;;;;;;10.38;5.95;;;23.00;54.20;;;;;;4990984;28;20034;-54
2021/04/13 07:19:34;;;;;;;9.65;5.13;;;23.00;54.10;;;;;;5076654;28;20118;-54
2021/04/13 07:22:27;;;;;;;8.75;4.65;;;23.00;54.10;;;;;;5073230;28;20031;-54
2021/04/13 07:25:11;;;;;;;9.25;4.72;;;23.00;54.60;;;;;;5091575;28;20079;-55
2021/04/13 07:27:47;;;;;;;12.68;5.10;;;23.10;54.10;;;;;;5094566;28;20040;-55
2021/04/13 07:30:24;;;;;;;11.20;5.43;;;23.00;54.00;;;;;;5094908;28;20028;-55
2021/04/13 07:32:59;;;;;;;13.57;5.97;;;23.10;54.00;;;;;;5094725;28;20135;-55
2021/04/13 07:35:31;;;;;;;17.73;8.70;;;23.10;54.00;;;;;;5093702;28;20107;-55
2021/04/13 07:38:15;;;;;;;15.55;8.88;;;23.10;53.90;;;;;;5060901;28;20028;-56
2021/04/13 07:40:46;;;;;;;11.57;6.93;;;23.10;53.80;;;;;;5095678;28;20048;-54
2021/04/13 07:43:26;;;;;;;13.80;6.90;;;23.10;53.70;;;;;;5096103;28;20031;-55
2021/04/13 07:46:06;;;;;;;14.13;7.40;;;23.10;53.80;;;;;;5095776;28;20416;-55
2021/04/13 07:48:44;;;;;;;11.25;5.60;;;23.20;53.80;;;;;;5076227;28;20032;-54
2021/04/13 07:51:39;;;;;;;12.68;5.13;;;23.10;53.80;;;;;;5094270;28;20021;-54
2021/04/13 07:54:26;;;;;;;32.88;6.55;;;23.20;53.70;;;;;;5090312;28;20129;-55
2021/04/13 07:56:58;;;;;;;9.43;4.82;;;23.20;53.70;;;;;;5095873;28;20105;-54
2021/04/13 07:59:40;;;;;;;12.27;5.30;;;23.20;53.60;;;;;;5097584;28;20478;-55
2021/04/13 08:02:07;;;;;;;60.50;44.88;;;23.20;53.60;;;;;;5076446;28;20389;-55
2021/04/13 08:04:33;;;;;;;66.28;54.95;;;23.20;53.70;;;;;;5094406;28;20035;-54
2021/04/13 08:06:59;;;;;;;35.67;25.77;;;23.20;53.80;;;;;;5076304;28;20031;-54
2021/04/13 08:09:49;;;;;;;15.70;8.73;;;23.20;53.60;;;;;;5091891;28;20024;-54
2021/04/13 08:12:15;;;;;;;19.15;5.32;;;23.20;53.50;;;;;;5075079;28;20037;-54
2021/04/13 08:14:48;;;;;;;12.93;4.95;;;23.20;53.40;;;;;;5087346;28;20394;-54
2021/04/13 08:17:29;;;;;;;14.43;4.30;;;23.20;53.50;;;;;;5093449;28;20032;-54
2021/04/13 08:20:05;;;;;;;;;;;23.20;53.50;;;;;;5093783;28;20020;-54
2021/04/13 08:22:50;;;;;;;16.38;4.10;;;23.10;53.70;;;;;;5092475;28;19915;-54
2021/04/13 08:25:42;;;;;;;15.65;5.30;;;23.20;53.40;;;;;;5092532;28;20133;-54
2021/04/13 08:28:38;;;;;;;18.30;4.95;;;23.20;53.60;;;;;;5073914;28;20119;-54
2021/04/13 08:34:57;;;;;;;12.65;4.80;;;23.10;54.00;;;;;;5094257;28;20043;-54
2021/04/13 08:37:37;;;;;;;17.27;4.45;;;23.10;54.10;;;;;;5073051;28;20040;-54
2021/04/13 08:40:22;;;;;;;18.40;5.78;;;23.10;54.10;;;;;;5095036;28;20035;-54
2021/04/13 08:43:10;;;;;;;17.48;4.93;;;23.10;54.20;;;;;;5093974;28;20093;-53
2021/04/13 08:45:46;;;;;;;15.55;4.13;;;23.10;54.10;;;;;;5063381;28;20581;-53
2021/04/13 08:48:29;;;;;;;10.32;4.10;;;23.10;54.00;;;;;;5085483;28;20482;-54
2021/04/13 08:51:12;;;;;;;14.35;4.57;;;23.10;53.90;;;;;;5073726;28;20085;-53
2021/04/13 08:54:03;;;;;;;11.32;3.90;;;23.10;54.00;;;;;;5085111;28;20031;-53
2021/04/13 08:56:29;;;;;;;;;;;23.20;53.60;;;;;;5093238;28;20078;-54
2021/04/13 08:59:00;;;;;;;15.43;4.97;;;23.20;53.80;;;;;;5093141;28;20030;-54
2021/04/13 09:01:39;;;;;;;14.27;4.65;;;23.30;53.20;;;;;;5093892;28;20082;-54
2021/04/13 09:04:29;;;;;;;15.05;4.95;;;23.30;53.30;;;;;;5093555;28;20119;-54
2021/04/13 09:07:02;;;;;;;9.55;5.05;;;23.30;53.50;;;;;;5093813;28;20066;-53
2021/04/13 09:09:31;;;;;;;15.00;4.47;;;23.30;53.50;;;;;;5093550;28;20043;-54
2021/04/13 09:12:06;;;;;;;15.32;4.82;;;23.40;53.30;;;;;;5093698;28;20030;-53
2021/04/13 09:14:40;;;;;;;11.38;4.28;;;23.30;53.20;;;;;;5093768;28;20032;-53
2021/04/13 09:17:19;;;;;;;13.20;4.20;;;23.40;53.20;;;;;;5093743;28;20039;-54
2021/04/13 09:20:16;;;;;;;12.57;4.82;;;23.40;53.20;;;;;;5089409;28;20029;-53
2021/04/13 09:23:03;;;;;;;11.15;4.45;;;23.40;53.30;;;;;;5046797;28;20036;-53
2021/04/13 09:26:10;;;;;;;12.85;4.57;;;23.50;53.30;;;;;;5091945;28;20049;-54
2021/04/13 09:29:02;;;;;;;13.55;4.80;;;23.50;53.30;;;;;;5092638;28;20062;-54
2021/04/13 09:31:46;;;;;;;16.02;4.70;;;23.60;53.20;;;;;;5076788;28;20036;-53
2021/04/13 09:34:22;;;;;;;19.48;6.35;;;23.60;53.10;;;;;;5092696;28;20020;-54
2021/04/13 09:37:00;;;;;;;11.13;4.15;;;23.70;53.10;;;;;;5092155;28;20028;-53
2021/04/13 09:40:08;;;;;;;15.10;5.30;;;23.70;52.90;;;;;;5074766;28;20173;-53
2021/04/13 09:43:06;;;;;;;15.25;5.25;;;23.70;52.90;;;;;;5075553;28;20492;-54
2021/04/13 09:45:41;;;;;;;11.65;4.55;;;23.80;53.20;;;;;;5091553;28;20394;-55
2021/04/13 09:48:10;;;;;;;13.35;4.72;;;23.80;53.10;;;;;;5089465;28;20370;-54
2021/04/13 09:50:47;;;;;;;12.45;4.38;;;23.90;52.90;;;;;;5090856;28;20028;-53
2021/04/13 09:53:36;;;;;;;13.60;4.55;;;23.90;52.80;;;;;;5072516;28;20477;-54
2021/04/13 09:56:17;;;;;;;10.45;4.18;;;24.00;52.70;;;;;;5085053;28;20141;-54
2021/04/13 09:59:01;;;;;;;14.05;4.10;;;24.00;52.70;;;;;;5090471;28;20055;-55
2021/04/13 10:01:49;;;;;;;17.65;4.68;;;24.10;52.50;;;;;;5089500;28;20058;-55
2021/04/13 10:04:35;;;;;;;7.82;4.15;;;24.20;52.40;;;;;;5090056;28;20369;-54
2021/04/13 10:07:29;;;;;;;13.40;4.25;;;24.20;52.10;;;;;;5086076;28;20028;-54
2021/04/13 10:09:58;;;;;;;11.38;4.32;;;24.30;52.00;;;;;;5090064;28;20030;-54
2021/04/13 10:13:01;;;;;;;12.35;4.20;;;24.40;51.80;;;;;;5091386;28;20382;-53
2021/04/13 10:15:42;;;;;;;14.40;3.70;;;24.40;51.60;;;;;;5087463;28;20028;-54
2021/04/13 10:18:47;;;;;;;10.75;4.50;;;24.50;51.30;;;;;;5089606;28;20051;-54
2021/04/13 10:21:15;;;;;;;9.88;3.90;;;24.60;51.40;;;;;;5089694;28;20028;-54
2021/04/13 10:23:50;;;;;;;9.93;4.32;;;24.60;50.90;;;;;;5091684;28;20062;-54
2021/04/13 10:26:58;;;;;;;15.18;4.78;;;24.70;50.80;;;;;;5073968;28;20078;-54
2021/04/13 10:29:42;;;;;;;12.18;3.95;;;24.70;50.60;;;;;;5037948;28;20074;-54
2021/04/13 10:32:29;;;;;;;12.07;4.05;;;24.80;50.20;;;;;;5084136;28;20427;-55
2021/04/13 10:35:26;;;;;;;13.48;4.38;;;24.80;50.10;;;;;;5071911;28;20028;-55
2021/04/13 10:38:11;;;;;;;12.38;3.95;;;24.80;50.30;;;;;;5090363;28;20478;-55
2021/04/13 10:41:04;;;;;;;12.35;3.90;;;24.80;50.10;;;;;;5074892;28;20039;-55
2021/04/13 10:43:55;;;;;;;11.18;3.88;;;24.80;50.00;;;;;;5090661;28;20055;-54
2021/04/13 10:46:47;;;;;;;11.48;3.42;;;24.80;49.90;;;;;;5054452;28;20043;-54
2021/04/13 10:49:53;;;;;;;15.55;3.55;;;24.80;49.70;;;;;;5071856;28;20112;-54
2021/04/13 10:52:57;;;;;;;13.15;3.53;;;24.80;49.60;;;;;;5072451;28;20107;-55
2021/04/13 10:55:44;;;;;;;16.65;3.10;;;24.90;49.40;;;;;;5072165;28;20024;-54
2021/04/13 10:58:22;;;;;;;9.88;2.28;;;24.90;48.60;;;;;;5072177;28;20046;-54
2021/04/13 11:01:19;;;;;;;8.80;3.40;;;24.90;48.20;;;;;;5074979;28;20048;-55
2021/04/13 11:04:04;;;;;;;11.55;2.40;;;24.90;48.30;;;;;;5076120;28;20427;-54
2021/04/13 11:06:47;;;;;;;9.32;2.60;;;24.90;48.20;;;;;;5075977;28;20116;-55
2021/04/13 11:09:18;;;;;;;9.15;2.17;;;25.00;48.20;;;;;;5075866;28;20107;-55
2021/04/13 11:12:22;;;;;;;15.00;3.47;;;25.00;48.10;;;;;;5058011;28;20493;-55
2021/04/13 11:15:04;;;;;;;17.73;3.53;;;25.00;48.40;;;;;;5057567;28;20378;-55
2021/04/13 11:17:55;;;;;;;8.20;3.17;;;25.10;48.20;;;;;;5075813;28;20034;-55
2021/04/13 11:20:53;;;;;;;10.50;2.58;;;25.10;48.00;;;;;;5075766;28;20029;-55
2021/04/13 11:23:22;;;;;;;15.18;3.80;;;25.10;48.10;;;;;;5051222;28;20040;-55
2021/04/13 11:26:25;;;;;;;12.00;2.55;;;25.20;47.80;;;;;;5057727;28;20115;-55
2021/04/13 11:29:12;;;;;;;7.70;2.33;;;25.30;47.90;;;;;;5075411;28;20367;-54
2021/04/13 11:32:11;;;;;;;13.48;3.60;;;25.30;47.50;;;;;;5075156;28;20409;-55
2021/04/13 11:34:42;;;;;;;11.15;2.85;;;25.30;47.60;;;;;;5075633;28;20031;-55
2021/04/13 11:37:32;;;;;;;14.00;3.35;;;25.40;47.40;;;;;;5075621;28;20468;-55
2021/04/13 11:40:36;;;;;;;10.77;3.28;;;25.50;47.60;;;;;;5057603;28;20025;-55
2021/04/13 11:43:02;;;;;;;11.10;2.83;;;25.60;47.70;;;;;;5057544;28;20075;-55
2021/04/13 11:45:49;;;;;;;8.88;2.85;;;25.70;47.60;;;;;;5057641;28;20032;-55
2021/04/13 11:48:40;;;;;;;10.80;2.95;;;25.80;47.40;;;;;;5041411;28;20028;-55
2021/04/13 11:51:29;;;;;;;16.00;3.15;;;25.90;47.30;;;;;;5075389;28;20024;-55
2021/04/13 11:53:57;;;;;;;12.20;2.83;;;25.90;46.80;;;;;;5075585;28;20021;-56
2021/04/13 11:56:23;;;;;;;8.95;2.90;;;26.00;46.90;;;;;;5057515;28;20040;-56
2021/04/13 11:59:18;;;;;;;11.95;3.25;;;26.00;46.90;;;;;;5075626;28;20078;-55
2021/04/13 12:01:46;;;;;;;14.73;3.15;;;26.00;46.90;;;;;;5074940;28;20202;-55
2021/04/13 12:04:18;;;;;;;11.32;3.38;;;26.00;46.80;;;;;;5074733;28;20055;-55
2021/04/13 12:07:04;;;;;;;7.80;2.80;;;26.00;46.80;;;;;;5075072;28;20224;-55
2021/04/13 12:10:02;;;;;;;7.82;2.63;;;25.90;46.90;;;;;;5075258;28;20382;-55
2021/04/13 12:12:33;;;;;;;11.00;3.05;;;25.90;47.00;;;;;;5075120;28;20041;-55
2021/04/13 12:15:02;;;;;;;15.15;3.92;;;25.90;46.80;;;;;;5074741;28;20029;-55
2021/04/13 12:17:42;;;;;;;10.02;3.88;;;25.90;46.90;;;;;;5074900;28;20036;-55
2021/04/13 12:23:02;;;;;;;9.77;3.10;;;25.80;46.90;;;;;;5074910;28;20476;-55
2021/04/13 12:25:40;;;;;;;10.55;3.10;;;25.80;46.90;;;;;;5074719;28;20043;-56
2021/04/13 12:28:34;;;;;;;8.05;2.88;;;25.80;47.00;;;;;;5056603;28;20390;-55
2021/04/13 12:31:13;;;;;;;7.93;2.83;;;25.80;47.20;;;;;;5056380;28;20497;-56
2021/04/13 12:33:39;;;;;;;13.77;2.97;;;25.80;47.00;;;;;;5074598;28;20048;-56
2021/04/13 12:36:06;;;;;;;8.07;3.00;;;25.80;47.10;;;;;;5074463;28;20037;-56
2021/04/13 12:38:44;;;;;;;10.85;3.83;;;25.80;47.20;;;;;;5073828;28;20100;-54
2021/04/13 12:41:30;;;;;;;10.25;3.13;;;25.80;47.10;;;;;;5074435;28;20803;-55
2021/04/13 12:44:22;;;;;;;11.52;3.63;;;25.80;47.20;;;;;;5074262;28;20466;-55
2021/04/13 12:46:50;;;;;;;10.48;3.33;;;25.80;47.10;;;;;;5073925;28;20028;-57
2021/04/13 12:49:36;;;;;;;9.90;3.20;;;25.80;47.20;;;;;;5056511;28;20099;-56
2021/04/13 12:52:05;;;;;;;9.32;3.05;;;25.80;47.20;;;;;;5074025;28;20047;-55
2021/04/13 12:54:39;;;;;;;9.48;2.80;;;25.80;47.20;;;;;;5074061;28;20507;-56
2021/04/13 12:57:22;;;;;;;8.90;3.03;;;25.90;47.20;;;;;;5074297;28;20052;-55
2021/04/13 12:59:50;;;;;;;14.07;2.83;;;25.90;47.20;;;;;;5074054;28;20020;-55
2021/04/13 13:02:31;;;;;;;11.25;2.95;;;25.90;47.20;;;;;;5073920;28;20032;-55
2021/04/13 13:04:57;;;;;;;10.63;2.85;;;25.90;47.20;;;;;;5073946;28;20047;-54
2021/04/13 13:07:27;;;;;;;7.55;2.90;;;25.90;47.20;;;;;;5073770;28;20103;-55
2021/04/13 13:09:53;;;;;;;7.70;2.87;;;25.90;47.10;;;;;;5073663;28;20351;-55
2021/04/13 13:12:34;;;;;;;6.55;2.42;;;25.90;47.20;;;;;;5073744;28;20016;-56
2021/04/13 13:15:01;;;;;;;;;;;25.90;47.00;;;;;;5074292;28;20021;-56
2021/04/13 13:17:31;;;;;;;9.30;2.85;;;26.00;47.50;;;;;;5073768;28;19912;-56
2021/04/13 13:19:58;;;;;;;6.82;2.47;;;26.00;46.70;;;;;;5055919;28;20036;-56
2021/04/13 13:22:30;;;;;;;9.70;2.60;;;26.00;46.70;;;;;;5072812;28;20020;-56
2021/04/13 13:25:10;;;;;;;10.20;2.00;;;26.00;46.20;;;;;;5073788;28;20036;-56
2021/04/13 13:27:36;;;;;;;8.40;2.33;;;26.00;46.30;;;;;;5055413;28;20039;-56
2021/04/13 13:30:08;;;;;;;14.23;3.00;;;26.00;46.50;;;;;;5073154;28;20089;-56
2021/04/13 13:32:36;;;;;;;9.90;2.85;;;26.00;46.10;;;;;;5055518;28;20127;-56
2021/04/13 13:35:06;;;;;;;8.63;2.28;;;26.00;46.20;;;;;;5055769;28;20032;-56
2021/04/13 13:37:36;;;;;;;11.60;2.30;;;26.00;45.90;;;;;;5073046;28;20355;-54
2021/04/13 13:40:07;;;;;;;13.25;3.40;;;25.90;45.50;;;;;;5038723;28;20066;-54
2021/04/13 13:42:33;;;;;;;5.35;2.22;;;25.90;45.20;;;;;;5072814;28;20525;-54
2021/04/13 13:45:01;;;;;;;15.23;3.47;;;26.00;45.30;;;;;;5073139;28;20029;-54
2021/04/13 13:47:30;;;;;;;9.70;2.47;;;25.90;45.20;;;;;;5073254;28;20029;-55
2021/04/13 13:49:58;;;;;;;10.15;4.70;;;25.90;45.10;;;;;;5073156;28;20017;-54
2021/04/13 13:52:46;;;;;;;10.10;3.50;;;25.90;46.00;;;;;;5073189;28;20043;-55
2021/04/13 13:55:32;;;;;;;10.85;2.67;;;25.90;45.50;;;;;;5072962;28;20098;-55